Station: MINLATON AWS

  Atmospheric Gas Attenuation - ITU Rec 676-11   --------------- db/100km ---------------
Date Time Temp RH % AH g/m3 Dew Point Wind Direction Speed kph Gust kph Barometer mB Rainfall Since 9am 24GHz 47GHz 76GHz 122GHz 134GHz 241GHz
17 01:00 7.2 96 7.54 6.6 22 24 1021.1 0.2 17.6 26.4 39.1 102.3 92.8 317.9
17 00:50 7.2 96 7.54 6.6 20 22 1021 0.2 17.6 26.4 39.1 102.3 92.8 317.9
17 00:40 7.8 96 7.84 7.2 20 22 1021.2 0.2 18.2 26.7 40.0 104.9 96.3 330.1
17 00:30 7.6 96 7.74 7 20 24 1021.2 0 18.0 26.6 39.7 104.1 95.1 326.1
17 00:20 7.7 96 7.79 7.1 20 24 1021.2 0 18.1 26.7 39.9 104.5 95.7 328.1
17 00:10 7.5 96 7.69 6.9 20 20 1021.3 0 17.9 26.6 39.6 103.6 94.6 324.1
17 00:00 7.5 96 7.69 6.9 20 24 1021.5 0 17.9 26.6 39.6 103.7 94.6 324.1
16 23:50 7.3 96 7.59 6.7 22 22 1021.3 0 17.7 26.4 39.2 102.8 93.4 320.0
16 23:40 6.8 96 7.35 6.2 24 26 1021.4 0 17.2 26.2 38.5 100.7 90.7 310.3
16 23:30 6.7 96 7.3 6.1 22 26 1021.7 0 17.1 26.1 38.3 100.3 90.1 308.4
16 23:20 6.9 95 7.32 6.2 20 22 1022.1 0 17.2 26.1 38.3 100.3 90.2 308.6
16 23:10 7.3 95 7.51 6.6 22 22 1022.2 0 17.5 26.3 38.9 102.0 92.4 316.3
16 23:00 7.4 95 7.56 6.7 20 24 1022.4 0 17.6 26.4 39.1 102.4 92.9 318.4
16 22:50 7.6 95 7.66 6.9 20 20 1022.3 0 17.9 26.5 39.4 103.3 94.1 322.5
16 22:40 7.8 95 7.76 7.1 22 22 1022.2 0 18.1 26.6 39.8 104.1 95.2 326.5
16 22:30 7.4 95 7.56 6.7 22 24 1022.4 0 17.6 26.4 39.1 102.4 92.9 318.4
16 22:20 7.7 95 7.71 7 20 22 1022.3 0 18.0 26.6 39.6 103.7 94.7 324.5
16 22:10 7.7 95 7.71 7 19 20 1022.4 0 18.0 26.6 39.6 103.7 94.7 324.5
16 22:00 7.9 95 7.81 7.1 20 24 1022.4 0 18.2 26.7 39.9 104.6 95.8 328.6
16 21:50 7.7 94 7.63 6.8 20 20 1022.6 0 17.8 26.4 39.3 102.8 93.6 320.7
16 21:40 8.1 95 7.91 7.3 20 20 1022.7 0 18.4 26.8 40.3 105.5 97.0 332.7
16 21:30 7.8 94 7.67 6.9 20 22 1022.9 0 17.9 26.5 39.4 103.2 94.0 322.3
16 21:20 7.3 94 7.43 6.4 20 20 1022.8 0 17.4 26.2 38.6 101.1 91.3 312.6
16 21:10 7.1 94 7.33 6.2 17 17 1023 0 17.2 26.1 38.3 100.3 90.1 308.6
16 21:00 6.6 94 7.1 5.7 15 17 1023.1 0 16.7 25.9 37.6 98.3 87.5 299.4
16 20:50 6.9 93 7.16 5.8 15 15 1023.1 0 16.8 25.9 37.7 98.6 88.0 301.1
16 20:40 7.6 93 7.5 6.5 15 15 1022.9 0 17.5 26.3 38.8 101.5 91.9 314.8
16 20:30 8 93 7.69 6.9 19 20 1022.6 0 17.9 26.5 39.4 103.1 94.0 322.3
16 20:20 8.3 93 7.84 7.2 20 20 1022.3 0 18.2 26.6 39.8 104.4 95.7 328.3
16 20:10 8.8 94 8.18 7.9 24 28 1022.1 0 18.9 27.0 41.0 107.5 99.8 342.7
16 20:00 8.2 93 7.79 7.1 22 28 1022.3 0 18.1 26.6 39.7 103.9 95.2 326.3
16 19:50 7.9 93 7.64 6.8 17 19 1023 0 17.8 26.4 39.2 102.7 93.5 320.4
16 19:40 7.9 92 7.56 6.7 17 17 1023 0 17.6 26.3 38.9 101.8 92.4 316.5
16 19:30 8 92 7.61 6.8 19 20 1023.1 0 17.7 26.3 39.1 102.3 93.0 318.6
16 19:20 8.1 92 7.66 6.9 19 20 1023 0 17.8 26.4 39.2 102.7 93.5 320.6
16 19:10 7.9 92 7.56 6.7 19 19 1023 0 17.6 26.3 38.9 101.8 92.4 316.5
16 19:00 7.3 92 7.27 6.1 17 17 1023.1 0 17.0 26.0 38.0 99.4 89.1 304.9
16 18:50 7.2 91 7.15 5.8 17 17 1023 0 16.8 25.8 37.5 98.1 87.5 299.4
16 18:40 7.3 91 7.19 5.9 17 17 1023 0 16.9 25.8 37.6 98.4 88.0 301.0
16 18:30 7.1 90 7.02 5.6 17 17 1023.2 0 16.5 25.6 37.0 96.8 85.9 293.6
16 18:20 7.9 89 7.31 6.2 17 17 1023.2 0 17.1 25.9 37.9 99.0 89.0 304.5
16 18:10 7.1 88 6.87 5.3 13 15 1023.1 0 16.2 25.4 36.4 95.1 83.8 286.4
16 18:00 8 88 7.28 6.1 11 13 1023.1 0 17.0 25.8 37.7 98.6 88.4 302.6
16 17:50 8.1 87 7.24 6.1 13 13 1022.8 0 16.9 25.7 37.5 98.0 87.7 300.3
16 17:40 9 86 7.58 6.8 11 13 1022.7 0 17.6 26.0 38.4 100.6 91.3 313.0
16 17:30 9.7 85 7.84 7.3 15 17 1022.6 0 18.1 26.2 39.2 102.6 94.0 322.6
16 17:20 10.7 83 8.15 7.9 15 15 1022.5 0 18.8 26.4 39.9 104.7 97.0 333.2
16 17:10 11.6 82 8.52 8.6 11 11 1022.6 0 19.5 26.8 41.0 107.5 100.9 347.0
16 17:00 12.3 80 8.69 9 11 13 1022.7 0 19.8 26.8 41.4 108.5 102.3 352.0
16 16:50 13.1 78 8.9 9.4 11 13 1022.6 0 20.3 26.9 41.8 109.7 104.1 358.3
16 16:40 13.7 76 9 9.6 11 11 1022.6 0 20.4 26.9 41.9 109.9 104.7 360.3
16 16:30 14.1 74 8.98 9.5 11 15 1022.7 0 20.4 26.8 41.6 109.2 103.9 357.5
16 16:20 14.4 74 9.15 9.8 9 11 1022.6 0 20.7 27.0 42.1 110.6 105.7 364.1
16 16:10 14.4 74 9.15 9.8 13 15 1022.6 0 20.7 27.0 42.1 110.6 105.7 364.1
16 16:00 14.8 72 9.12 9.8 15 19 1022.9 0 20.6 26.8 41.8 109.7 104.8 360.9
16 15:50 15 72 9.23 10 15 15 1022.8 0 20.9 26.9 42.2 110.6 106.0 365.1
16 15:40 15.1 72 9.29 10.1 13 15 1022.8 0 21.0 27.0 42.3 111.1 106.7 367.5
16 15:30 15.1 71 9.16 9.9 13 19 1023 0 20.7 26.8 41.8 109.7 104.9 361.5
16 15:20 15.5 72 9.52 10.5 9 9 1022.9 0 21.5 27.3 43.1 113.1 109.2 376.4
16 15:10 15.2 70 9.09 9.8 13 15 1022.7 0 20.6 26.6 41.5 108.8 103.9 357.7
16 15:00 15.6 70 9.31 10.2 15 20 1022.7 0 21.0 26.9 42.2 110.6 106.2 366.0
16 14:50 15.5 69 9.12 9.8 11 13 1022.7 0 20.6 26.6 41.4 108.7 103.8 357.7
16 14:40 15.6 70 9.31 10.2 13 13 1022.8 0 21.0 26.9 42.2 110.6 106.2 366.1
16 14:30 16.2 67 9.24 10.1 9 15 1022.9 0 20.8 26.6 41.6 109.1 104.5 360.1
16 14:20 16.2 66 9.1 9.8 11 13 1022.9 0 20.5 26.4 41.0 107.6 102.7 353.7
16 14:10 15.9 66 8.94 9.6 11 13 1022.9 0 20.2 26.2 40.5 106.3 101.0 347.7
16 14:00 16.3 66 9.16 9.9 9 15 1023.1 0 20.6 26.4 41.2 108.1 103.3 356.0
16 13:50 16.3 66 9.16 9.9 9 13 1023 0 20.6 26.4 41.2 108.1 103.3 356.0
16 13:40 16.6 73 10.31 11.7 11 13 1023.1 0 23.1 28.2 45.7 120.1 118.3 408.2
16 13:30 15.7 66 8.83 9.4 11 17 1023.3 0 20.0 26.1 40.2 105.4 99.8 343.6
16 13:20 15.3 72 9.4 10.3 11 15 1023.2 0 21.2 27.1 42.7 112.1 107.9 371.8
16 13:10 15 72 9.23 10 15 15 1023.3 0 20.9 26.9 42.2 110.7 106.0 365.3
16 13:00 15.2 72 9.35 10.2 13 20 1023.5 0 21.1 27.1 42.6 111.7 107.4 370.0
16 12:50 15.5 73 9.65 10.7 17 20 1023.5 0 21.7 27.5 43.6 114.6 111.0 382.7
16 12:40 15 74 9.49 10.4 13 15 1023.8 0 21.4 27.4 43.3 113.6 109.6 377.7
16 12:30 15.2 76 9.86 11 15 20 1024.1 0 22.2 28.0 44.7 117.4 114.3 394.3
16 12:20 14.8 75 9.5 10.4 17 17 1024.3 0 21.4 27.5 43.4 114.0 110.0 379.2
16 12:10 15.1 76 9.8 10.9 15 17 1024.4 0 22.1 27.9 44.5 116.9 113.7 392.1
16 12:00 14.9 76 9.69 10.7 17 20 1024.6 0 21.8 27.8 44.2 116.0 112.5 387.9
16 11:50 15.2 76 9.86 11 11 13 1024.6 0 22.2 28.0 44.7 117.4 114.4 394.5
16 11:40 14.8 75 9.5 10.4 15 17 1024.7 0 21.4 27.5 43.5 114.1 110.1 379.4
16 11:30 14.7 76 9.57 10.5 17 20 1025 0 21.6 27.7 43.8 115.0 111.2 383.3
16 11:20 14.6 75 9.39 10.2 19 20 1025 0 21.2 27.4 43.1 113.2 108.9 375.2
16 11:10 14.8 78 9.88 11 15 20 1025 0 22.3 28.2 45.1 118.3 115.3 397.6
16 11:00 14.7 77 9.69 10.7 15 19 1025.2 0 21.9 27.9 44.3 116.4 112.9 389.1
16 10:50 14.4 79 9.77 10.8 13 15 1025.2 0 22.0 28.1 44.8 117.7 114.4 394.4
16 10:40 14.3 81 9.95 11.1 17 20 1025.2 0 22.4 28.4 45.6 119.9 117.0 403.6
16 10:30 14.3 85 10.44 11.8 13 19 1025.4 0 23.5 29.3 47.7 125.5 123.9 427.6
16 10:20 13.9 86 10.31 11.6 15 19 1025.3 0 23.2 29.2 47.4 124.6 122.7 423.4
16 10:10 13.4 91 10.58 12 17 19 1025.2 0 23.8 29.8 48.9 128.5 127.4 439.6
16 10:00 13.1 94 10.73 12.2 13 15 1025.2 0 24.2 30.2 49.7 130.8 130.0 448.9
16 09:50 12.4 94 10.27 11.5 11 13 1025.1 0 23.2 29.6 48.2 126.6 124.5 429.6
16 09:40 12.6 95 10.51 11.8 7 9 1025.1 0 23.7 30.0 49.1 129.0 127.7 440.6
16 09:30 12 95 10.13 11.2 2 11 1025.2 0 22.9 29.5 47.8 125.6 123.2 424.8
16 09:20 11.6 96 9.98 11 0 0 1025.1 0 22.6 29.4 47.4 124.5 121.7 419.4
16 09:10 11.3 96 9.79 10.7 0 0 1025 0 22.3 29.1 46.7 122.7 119.4 411.4
16 09:00 10.8 95 9.39 10 0 2 1025 0 21.4 28.6 45.3 118.8 114.4 394.0
16 08:50 10.8 95 9.39 10 0 0 1024.9 0 21.4 28.6 45.3 118.8 114.4 394.0
16 08:40 11 96 9.61 10.4 0 0 1024.7 0 21.9 28.9 46.1 121.0 117.2 403.9
16 08:30 10.7 96 9.43 10.1 6 7 1024.8 0 21.5 28.7 45.5 119.4 115.1 396.4

Last Refresh: 17-Jul-2020 01:13:24

Most of the information presented on this site is sourced from the Bureau of Meteorology.  Copyright in all material sourced from the Bureau of Meteorology resides with the Commonwealth of Australia.